Time;durP1;ratioP1;P1;durP2;ratioP2;P2;SDS_P1;SDS_P2;PMS_P1;PMS_P2;Temp;Humidity;BMP_temperature;BMP_pressure;BME280_temperature;BME280_humidity;BME280_pressure;Samples;Min_cycle;Max_cycle;Signal;HPM_P1;HPM_P2
2023/04/18 00:01:20;;;;;;;16.00;10.45;;;7.00;99.90;;;;;;5106597;28;20032;-90
2023/04/18 00:03:46;;;;;;;17.95;11.27;;;6.70;99.90;;;;;;5095576;27;20050;-90
2023/04/18 00:06:12;;;;;;;16.10;11.63;;;6.70;99.90;;;;;;5103400;27;20069;-90
2023/04/18 00:08:38;;;;;;;18.73;10.45;;;6.60;99.90;;;;;;5099921;27;20078;-89
2023/04/18 00:11:04;;;;;;;13.65;10.55;;;6.60;99.90;;;;;;5109359;27;20039;-89
2023/04/18 00:13:30;;;;;;;16.48;9.90;;;6.60;99.90;;;;;;5098828;27;20104;-89
2023/04/18 00:15:56;;;;;;;16.05;9.88;;;6.70;99.90;;;;;;5103986;27;20358;-89
2023/04/18 00:18:25;;;;;;;17.50;10.88;;;6.60;99.90;;;;;;5099555;27;20067;-90
2023/04/18 00:20:51;;;;;;;15.35;10.98;;;6.60;99.90;;;;;;5103820;27;20042;-90
2023/04/18 00:23:17;;;;;;;17.95;11.25;;;7.20;99.90;;;;;;5102742;27;20473;-89
2023/04/18 00:25:43;;;;;;;16.05;10.70;;;6.70;99.90;;;;;;5106052;27;20047;-90
2023/04/18 00:28:08;;;;;;;16.08;10.85;;;6.50;99.90;;;;;;5119424;27;20051;-89
2023/04/18 00:30:34;;;;;;;16.98;11.30;;;6.50;99.90;;;;;;5117733;27;20082;-89
2023/04/18 00:33:00;;;;;;;21.88;11.82;;;6.50;99.90;;;;;;5118563;27;20038;-89
2023/04/18 00:35:26;;;;;;;23.42;11.95;;;6.50;99.90;;;;;;5118854;27;20129;-89
2023/04/18 00:37:51;;;;;;;19.58;12.05;;;6.40;99.90;;;;;;5104449;27;20046;-90
2023/04/18 00:40:17;;;;;;;18.75;11.80;;;6.70;99.90;;;;;;5109503;27;20067;-89
2023/04/18 00:42:43;;;;;;;18.15;12.35;;;6.40;99.90;;;;;;5112530;27;20034;-89
2023/04/18 00:45:09;;;;;;;15.38;11.68;;;6.30;99.90;;;;;;5107818;27;20486;-89
2023/04/18 00:47:35;;;;;;;19.55;12.40;;;6.30;99.90;;;;;;5104623;27;20125;-89
2023/04/18 00:50:01;;;;;;;16.33;11.38;;;6.50;99.90;;;;;;5119089;27;20126;-90
2023/04/18 00:52:27;;;;;;;22.88;11.05;;;6.30;99.90;;;;;;5118041;27;20045;-90
2023/04/18 00:54:53;;;;;;;18.95;11.32;;;6.30;99.90;;;;;;5109111;27;20043;-89
2023/04/18 00:57:19;;;;;;;19.60;10.52;;;6.30;99.90;;;;;;5098437;27;20035;-89
2023/04/18 00:59:46;;;;;;;16.95;11.32;;;6.20;99.90;;;;;;5108168;27;20175;-89
2023/04/18 01:02:11;;;;;;;16.17;10.60;;;6.20;99.90;;;;;;5117525;27;20039;-89
2023/04/18 01:04:37;;;;;;;13.73;9.73;;;6.40;99.90;;;;;;5118630;27;20136;-89
2023/04/18 01:07:03;;;;;;;16.92;10.93;;;6.20;99.90;;;;;;5102767;27;20074;-89
2023/04/18 01:09:29;;;;;;;14.77;10.18;;;6.40;99.90;;;;;;5106326;27;20828;-90
2023/04/18 01:11:56;;;;;;;16.83;10.98;;;6.20;99.90;;;;;;5102950;27;20456;-89
2023/04/18 01:14:22;;;;;;;16.35;10.82;;;6.20;99.90;;;;;;5097949;27;20045;-90
2023/04/18 01:16:47;;;;;;;16.55;11.07;;;6.60;99.90;;;;;;5100280;27;20482;-89
2023/04/18 01:19:15;;;;;;;19.50;11.48;;;6.20;99.90;;;;;;5109385;27;20039;-89
2023/04/18 01:21:42;;;;;;;17.63;11.00;;;6.40;99.90;;;;;;5110701;27;20117;-89
2023/04/18 01:24:11;;;;;;;16.83;11.95;;;6.20;99.90;;;;;;5107330;27;20043;-89
2023/04/18 01:26:37;;;;;;;16.83;10.63;;;6.60;99.90;;;;;;5118741;27;20098;-88
2023/04/18 01:29:03;;;;;;;17.27;11.68;;;6.10;99.90;;;;;;5106794;27;20059;-89
2023/04/18 01:31:28;;;;;;;15.68;11.10;;;6.10;99.90;;;;;;5110759;27;20047;-89
2023/04/18 01:33:54;;;;;;;14.65;11.05;;;6.10;99.90;;;;;;5108423;27;20054;-89
2023/04/18 01:36:20;;;;;;;14.65;11.43;;;6.10;99.90;;;;;;5116288;27;20129;-90
2023/04/18 01:38:46;;;;;;;17.27;11.50;;;6.10;99.90;;;;;;5107509;27;20042;-90
2023/04/18 01:41:11;;;;;;;16.27;11.60;;;6.10;99.90;;;;;;5110930;27;20047;-89
2023/04/18 01:43:37;;;;;;;17.50;11.75;;;6.00;99.90;;;;;;5097109;27;20133;-90
2023/04/18 01:46:03;;;;;;;17.60;11.13;;;6.00;99.90;;;;;;5114394;27;20043;-89
2023/04/18 01:48:28;;;;;;;20.27;11.15;;;6.00;99.90;;;;;;5117977;27;20038;-90
2023/04/18 01:50:54;;;;;;;17.05;10.60;;;6.00;99.90;;;;;;5102289;27;20038;-90
2023/04/18 01:53:20;;;;;;;18.45;10.73;;;5.90;99.90;;;;;;5108098;27;20046;-89
2023/04/18 01:55:49;;;;;;;19.73;10.85;;;5.90;99.90;;;;;;5114308;27;20046;-90
2023/04/18 01:58:15;;;;;;;16.65;10.15;;;5.90;99.90;;;;;;5106588;27;20050;-89
2023/04/18 02:00:40;;;;;;;15.63;10.18;;;6.00;99.90;;;;;;5097347;27;20497;-90
2023/04/18 02:03:06;;;;;;;16.20;10.93;;;6.20;99.90;;;;;;5108336;27;20082;-90
2023/04/18 02:05:32;;;;;;;15.50;9.50;;;5.90;99.90;;;;;;5102321;27;20500;-89
2023/04/18 02:07:58;;;;;;;16.63;10.32;;;6.00;99.90;;;;;;5117725;27;20101;-89
2023/04/18 02:10:23;;;;;;;13.55;9.90;;;6.20;99.90;;;;;;5114024;27;20043;-89
2023/04/18 02:12:49;;;;;;;14.38;9.02;;;6.00;99.90;;;;;;5106993;27;20046;-89
2023/04/18 02:15:15;;;;;;;14.43;8.90;;;6.10;99.90;;;;;;5100497;27;20041;-90
2023/04/18 02:17:40;;;;;;;12.30;8.82;;;7.00;99.90;;;;;;5107524;27;20046;-90
2023/04/18 02:20:07;;;;;;;12.40;8.52;;;6.60;99.90;;;;;;5113107;27;20031;-90
2023/04/18 02:22:32;;;;;;;11.32;8.90;;;6.20;99.90;;;;;;5095675;27;20133;-89
2023/04/18 02:24:58;;;;;;;15.95;8.73;;;6.30;99.90;;;;;;5110862;27;20562;-90
2023/04/18 02:27:24;;;;;;;11.57;7.97;;;6.40;99.90;;;;;;5107086;27;20051;-90
2023/04/18 02:29:49;;;;;;;12.43;7.47;;;6.40;99.90;;;;;;5113141;27;20057;-90
2023/04/18 02:32:15;;;;;;;13.40;7.75;;;6.50;99.90;;;;;;5095833;27;20050;-91
2023/04/18 02:34:41;;;;;;;11.32;7.80;;;7.00;99.90;;;;;;5100926;27;20039;-90
2023/04/18 02:37:06;;;;;;;11.50;8.00;;;6.70;99.90;;;;;;5106336;27;20043;-91
2023/04/18 02:39:32;;;;;;;15.15;7.97;;;7.00;99.90;;;;;;5095792;27;20100;-90
2023/04/18 02:41:58;;;;;;;10.98;7.10;;;6.60;99.90;;;;;;5096964;27;20070;-92
2023/04/18 02:44:24;;;;;;;13.23;7.75;;;6.70;99.90;;;;;;5112618;27;20418;-91
2023/04/18 02:46:49;;;;;;;11.65;7.22;;;6.70;99.90;;;;;;5116839;27;20102;-90
2023/04/18 02:49:15;;;;;;;10.65;7.65;;;6.70;99.90;;;;;;5103529;27;20125;-90
2023/04/18 02:51:40;;;;;;;10.50;7.10;;;6.70;99.90;;;;;;5115207;27;20149;-91
2023/04/18 02:54:06;;;;;;;9.80;6.93;;;6.70;99.90;;;;;;5116653;27;20030;-90
2023/04/18 02:56:38;;;;;;;9.57;6.68;;;6.70;99.90;;;;;;5105219;27;20039;-91
2023/04/18 02:59:05;;;;;;;12.10;7.80;;;7.20;99.90;;;;;;5096747;27;20129;-90
2023/04/18 03:01:31;;;;;;;10.50;7.00;;;6.70;99.90;;;;;;5095649;27;20102;-90
2023/04/18 03:03:58;;;;;;;10.32;7.40;;;6.70;99.90;;;;;;5096203;27;20130;-90
2023/04/18 03:06:23;;;;;;;15.05;7.95;;;6.90;99.90;;;;;;5105443;27;20039;-91
2023/04/18 03:08:49;;;;;;;10.35;7.30;;;6.70;99.90;;;;;;5115816;27;20043;-90
2023/04/18 03:11:15;;;;;;;11.95;7.63;;;6.90;99.90;;;;;;5116691;27;20045;-90
2023/04/18 03:13:40;;;;;;;11.18;7.97;;;6.70;99.90;;;;;;5098979;27;20512;-91
2023/04/18 03:16:06;;;;;;;9.50;7.07;;;6.70;99.90;;;;;;5104998;27;20033;-90
2023/04/18 03:18:32;;;;;;;10.93;7.32;;;6.70;99.90;;;;;;5115688;27;20112;-90
2023/04/18 03:20:57;;;;;;;12.77;8.05;;;6.70;99.90;;;;;;5115085;27;20035;-91
2023/04/18 03:23:23;;;;;;;14.05;8.18;;;6.70;99.90;;;;;;5099397;27;20091;-91
2023/04/18 03:25:49;;;;;;;12.88;7.30;;;6.90;99.90;;;;;;5095968;28;20035;-90
2023/04/18 03:28:14;;;;;;;14.63;7.32;;;6.80;99.90;;;;;;5112327;27;20455;-91
2023/04/18 03:30:41;;;;;;;11.65;6.95;;;6.70;99.90;;;;;;5105927;27;20078;-91
2023/04/18 03:33:07;;;;;;;9.60;6.60;;;7.00;99.90;;;;;;5108963;27;20051;-91
2023/04/18 03:35:33;;;;;;;11.50;7.40;;;6.70;99.90;;;;;;5104220;27;20043;-90
2023/04/18 03:37:59;;;;;;;12.15;6.97;;;6.70;99.90;;;;;;5099851;28;20047;-91
2023/04/18 03:40:25;;;;;;;11.60;7.55;;;6.70;99.90;;;;;;5105501;27;20031;-90
2023/04/18 03:42:50;;;;;;;11.10;7.63;;;6.70;99.90;;;;;;5099080;27;20071;-90
2023/04/18 03:45:16;;;;;;;11.75;6.93;;;6.70;99.90;;;;;;5105914;27;20046;-90
2023/04/18 03:47:42;;;;;;;12.55;7.72;;;6.60;99.90;;;;;;5102213;27;20038;-90
2023/04/18 03:50:08;;;;;;;9.02;6.68;;;6.70;99.90;;;;;;5104876;28;20151;-90
2023/04/18 03:52:33;;;;;;;11.23;7.05;;;6.70;99.90;;;;;;5111343;27;20027;-90
2023/04/18 03:54:59;;;;;;;11.75;6.72;;;6.80;99.90;;;;;;5115909;27;20049;-90
2023/04/18 03:57:25;;;;;;;9.80;6.78;;;7.20;99.90;;;;;;5105060;27;20035;-90
2023/04/18 03:59:51;;;;;;;9.93;6.63;;;7.00;99.90;;;;;;5119895;27;20038;-90
2023/04/18 04:02:16;;;;;;;11.57;7.07;;;6.90;99.90;;;;;;5119514;27;20042;-91
2023/04/18 04:04:42;;;;;;;9.57;7.65;;;6.70;99.90;;;;;;5125682;27;20382;-90
2023/04/18 04:07:08;;;;;;;11.27;6.90;;;6.70;99.90;;;;;;5119835;27;20496;-90
2023/04/18 04:09:33;;;;;;;11.05;6.88;;;6.80;99.90;;;;;;5118823;27;20057;-91
2023/04/18 04:11:59;;;;;;;10.50;6.57;;;6.70;99.90;;;;;;5113305;27;20046;-90
2023/04/18 04:14:25;;;;;;;10.30;7.38;;;6.70;99.90;;;;;;5099554;27;20039;-91
2023/04/18 04:16:51;;;;;;;13.13;7.32;;;6.70;99.90;;;;;;5108463;27;20147;-90
2023/04/18 04:19:16;;;;;;;11.23;7.43;;;6.80;99.90;;;;;;5110966;27;20039;-90
2023/04/18 04:21:42;;;;;;;10.40;6.93;;;6.80;99.90;;;;;;5119702;27;20043;-91
2023/04/18 04:24:08;;;;;;;14.73;7.43;;;6.80;99.90;;;;;;5117395;27;20170;-89
2023/04/18 04:26:34;;;;;;;12.10;7.82;;;6.80;99.90;;;;;;5118680;27;20126;-92
2023/04/18 04:29:02;;;;;;;11.38;7.97;;;6.80;99.90;;;;;;5120000;27;20494;-90
2023/04/18 04:31:28;;;;;;;12.27;7.95;;;6.80;99.90;;;;;;5116636;27;20405;-91
2023/04/18 04:33:53;;;;;;;11.30;7.32;;;6.90;99.90;;;;;;5107999;27;20047;-91
2023/04/18 04:36:20;;;;;;;13.35;7.93;;;6.80;99.90;;;;;;5105155;27;20475;-90
2023/04/18 04:38:46;;;;;;;12.57;7.38;;;6.80;99.90;;;;;;5109327;27;20064;-90
2023/04/18 04:41:11;;;;;;;14.60;7.80;;;6.80;99.90;;;;;;5099070;27;20077;-92
2023/04/18 04:43:39;;;;;;;13.63;8.15;;;6.90;99.90;;;;;;5108805;27;20045;-91
2023/04/18 04:46:06;;;;;;;13.25;7.85;;;6.90;99.90;;;;;;5104929;27;20405;-91
2023/04/18 04:48:32;;;;;;;13.13;7.82;;;6.90;99.90;;;;;;5108237;27;20039;-89
2023/04/18 04:50:59;;;;;;;12.13;8.15;;;6.90;99.90;;;;;;5101088;27;20488;-90
2023/04/18 04:53:29;;;;;;;12.55;8.63;;;6.90;99.90;;;;;;5108106;27;20093;-90
2023/04/18 04:55:55;;;;;;;14.35;8.00;;;6.90;99.90;;;;;;5102658;27;20035;-91
2023/04/18 04:58:21;;;;;;;12.93;8.40;;;6.90;99.90;;;;;;5118659;27;20047;-91
2023/04/18 05:00:46;;;;;;;13.82;8.43;;;6.90;99.90;;;;;;5113342;27;20092;-92
2023/04/18 05:03:12;;;;;;;13.27;9.05;;;6.90;99.90;;;;;;5110121;27;20125;-91
2023/04/18 05:05:38;;;;;;;14.00;8.90;;;7.00;99.90;;;;;;5104766;27;20138;-90
2023/04/18 05:08:04;;;;;;;14.63;8.93;;;7.40;99.90;;;;;;5117608;27;20042;-91
2023/04/18 05:10:31;;;;;;;12.13;8.68;;;7.00;99.90;;;;;;5106269;27;20543;-91
2023/04/18 05:12:57;;;;;;;13.30;9.13;;;7.00;99.90;;;;;;5109217;27;20047;-91
2023/04/18 05:15:23;;;;;;;14.02;9.18;;;7.00;99.90;;;;;;5111995;27;20054;-90
2023/04/18 05:17:49;;;;;;;14.60;10.02;;;7.00;99.90;;;;;;5117925;27;20111;-90
2023/04/18 05:20:15;;;;;;;20.85;9.27;;;7.10;99.90;;;;;;5129450;27;20147;-90
2023/04/18 05:22:41;;;;;;;13.57;9.02;;;7.10;99.90;;;;;;5117149;27;20107;-90
2023/04/18 05:25:07;;;;;;;13.80;9.70;;;7.10;99.90;;;;;;5105054;27;20046;-91
2023/04/18 05:27:33;;;;;;;17.02;8.77;;;7.10;99.90;;;;;;5132378;27;20050;-91
2023/04/18 05:29:58;;;;;;;14.07;9.90;;;7.20;99.90;;;;;;5117119;27;20049;-91
2023/04/18 05:32:24;;;;;;;15.20;9.68;;;7.20;99.90;;;;;;5125213;27;20054;-90
2023/04/18 05:34:50;;;;;;;16.05;9.88;;;7.20;99.90;;;;;;5100685;27;20031;-90
2023/04/18 05:37:15;;;;;;;14.63;9.55;;;7.20;99.90;;;;;;5113590;27;20053;-91
2023/04/18 05:39:41;;;;;;;15.63;9.38;;;7.30;99.90;;;;;;5130823;27;20078;-90
2023/04/18 05:42:07;;;;;;;14.45;9.65;;;7.30;99.90;;;;;;5134060;27;20057;-91
2023/04/18 05:44:33;;;;;;;14.93;9.43;;;7.40;99.90;;;;;;5110734;27;20042;-90
2023/04/18 05:46:58;;;;;;;15.27;10.10;;;7.40;99.90;;;;;;5104731;27;20095;-91
2023/04/18 05:49:24;;;;;;;14.25;9.20;;;7.30;99.90;;;;;;5124704;27;20050;-92
2023/04/18 05:51:51;;;;;;;19.90;9.88;;;7.40;99.90;;;;;;5125350;27;20034;-90
2023/04/18 05:54:20;;;;;;;13.20;9.20;;;7.50;99.90;;;;;;5108616;27;20041;-91
2023/04/18 05:56:46;;;;;;;13.55;8.95;;;7.50;99.90;;;;;;5137164;27;20097;-90
2023/04/18 05:59:12;;;;;;;13.30;9.77;;;7.90;99.90;;;;;;5135600;27;20523;-92
2023/04/18 06:01:38;;;;;;;15.13;9.63;;;7.70;99.90;;;;;;5134226;27;20046;-91
2023/04/18 06:04:04;;;;;;;14.57;9.32;;;7.80;99.90;;;;;;5134350;27;20049;-90
2023/04/18 06:06:30;;;;;;;22.23;10.10;;;7.90;99.90;;;;;;5124325;27;20042;-90
2023/04/18 06:08:56;;;;;;;14.43;8.82;;;7.90;99.90;;;;;;5126690;27;20046;-91
2023/04/18 06:11:22;;;;;;;15.65;8.93;;;7.90;99.90;;;;;;5122466;27;20026;-91
2023/04/18 06:13:47;;;;;;;15.18;8.57;;;7.90;99.90;;;;;;5136568;27;20035;-91
2023/04/18 06:16:13;;;;;;;11.13;8.40;;;7.90;99.90;;;;;;5129762;27;20122;-90
2023/04/18 06:18:39;;;;;;;12.50;8.15;;;7.90;99.90;;;;;;5127692;27;20261;-91
2023/04/18 06:21:05;;;;;;;16.90;8.80;;;8.00;99.90;;;;;;5122127;27;20170;-91
2023/04/18 06:23:31;;;;;;;13.32;8.10;;;7.90;99.90;;;;;;5113899;27;20078;-91
2023/04/18 06:25:57;;;;;;;15.70;8.77;;;8.20;99.90;;;;;;5119552;27;20045;-91
2023/04/18 06:28:23;;;;;;;17.83;9.15;;;8.00;99.90;;;;;;5102679;27;20462;-90
2023/04/18 06:30:49;;;;;;;12.02;7.93;;;8.00;99.90;;;;;;5123403;27;20039;-90
2023/04/18 06:33:14;;;;;;;14.20;7.95;;;8.20;99.90;;;;;;5115159;27;20049;-88
2023/04/18 06:35:40;;;;;;;13.05;7.97;;;8.10;99.90;;;;;;5103097;27;20494;-88
2023/04/18 06:38:06;;;;;;;15.32;8.25;;;8.10;99.90;;;;;;5102625;27;20082;-88
2023/04/18 06:40:32;;;;;;;14.00;8.32;;;8.10;99.90;;;;;;5115375;27;20030;-89
2023/04/18 06:42:58;;;;;;;17.33;8.27;;;8.10;99.90;;;;;;5102340;27;20035;-88
2023/04/18 06:45:24;;;;;;;25.08;8.63;;;8.10;99.90;;;;;;5101907;27;20062;-88
2023/04/18 06:47:51;;;;;;;18.58;7.78;;;8.40;99.90;;;;;;5095913;27;20155;-88
2023/04/18 06:50:17;;;;;;;12.30;8.73;;;8.20;99.90;;;;;;5116694;27;20026;-87
2023/04/18 06:52:44;;;;;;;15.23;8.60;;;8.30;99.90;;;;;;5108739;27;20037;-91
2023/04/18 06:55:12;;;;;;;15.98;8.35;;;8.20;99.90;;;;;;5095066;27;20078;-89
2023/04/18 06:57:41;;;;;;;14.07;8.18;;;8.30;99.90;;;;;;5097404;27;20039;-88
2023/04/18 07:00:08;;;;;;;12.73;7.60;;;8.40;99.90;;;;;;5108114;27;20039;-89
2023/04/18 07:02:38;;;;;;;12.48;8.68;;;8.40;99.90;;;;;;5103297;27;20050;-87
2023/04/18 07:05:05;;;;;;;16.85;7.72;;;8.40;99.90;;;;;;5103106;27;20176;-90
2023/04/18 07:07:32;;;;;;;10.88;7.70;;;8.50;99.90;;;;;;5100600;27;20043;-89
2023/04/18 07:09:58;;;;;;;15.73;8.45;;;8.50;99.90;;;;;;5104376;27;20415;-88
2023/04/18 07:12:24;;;;;;;13.57;7.97;;;8.60;99.90;;;;;;5114323;27;20106;-88
2023/04/18 07:14:50;;;;;;;11.95;7.70;;;8.60;99.90;;;;;;5114775;27;20043;-87
2023/04/18 07:17:16;;;;;;;13.57;8.25;;;8.60;99.90;;;;;;5108339;27;20035;-88
2023/04/18 07:19:42;;;;;;;11.88;8.15;;;8.70;99.90;;;;;;5095712;27;20047;-88
2023/04/18 07:22:08;;;;;;;13.27;8.15;;;8.80;99.90;;;;;;5108004;27;20168;-88
2023/04/18 07:24:35;;;;;;;15.05;8.98;;;8.80;99.90;;;;;;5106985;27;20066;-88
2023/04/18 07:27:02;;;;;;;11.63;8.32;;;8.90;99.90;;;;;;5115814;27;20035;-88
2023/04/18 07:29:28;;;;;;;21.83;9.60;;;9.00;99.90;;;;;;5113981;27;20537;-87
2023/04/18 07:31:54;;;;;;;19.17;8.70;;;9.00;99.90;;;;;;5111867;27;20050;-88
2023/04/18 07:34:23;;;;;;;12.65;8.13;;;9.00;99.90;;;;;;5101730;28;20054;-90
2023/04/18 07:36:48;;;;;;;12.93;8.25;;;9.10;99.90;;;;;;5093494;28;20036;-88
2023/04/18 07:39:14;;;;;;;14.82;8.95;;;9.20;99.90;;;;;;5095420;28;20477;-88
2023/04/18 07:41:40;;;;;;;17.10;8.70;;;9.20;99.90;;;;;;5093595;28;20050;-88
2023/04/18 07:44:06;;;;;;;16.05;7.97;;;9.20;99.90;;;;;;5108832;27;20161;-88
2023/04/18 07:46:32;;;;;;;18.35;8.80;;;9.30;99.90;;;;;;5094356;28;20129;-88
2023/04/18 07:48:58;;;;;;;16.27;8.40;;;9.70;99.90;;;;;;5093571;28;20355;-88
2023/04/18 07:51:30;;;;;;;15.45;8.52;;;9.40;99.90;;;;;;5107167;28;20047;-88
2023/04/18 07:53:56;;;;;;;13.00;7.93;;;9.60;99.90;;;;;;5108558;27;20053;-88
2023/04/18 07:56:22;;;;;;;24.33;9.10;;;9.70;99.90;;;;;;5100906;27;20034;-90
2023/04/18 07:58:47;;;;;;;13.85;8.10;;;9.60;99.90;;;;;;5101594;27;20117;-87
2023/04/18 08:01:14;;;;;;;15.85;8.13;;;9.70;99.90;;;;;;5107639;28;20088;-88
2023/04/18 08:03:40;;;;;;;16.50;7.60;;;9.70;99.90;;;;;;5107488;27;20133;-88
2023/04/18 08:06:06;;;;;;;40.00;10.25;;;9.80;99.90;;;;;;5102218;27;20053;-88
2023/04/18 08:08:32;;;;;;;13.27;7.97;;;9.80;99.90;;;;;;5113243;27;20069;-88
2023/04/18 08:10:58;;;;;;;41.08;9.13;;;9.90;99.90;;;;;;5106972;27;20039;-88
2023/04/18 08:13:24;;;;;;;31.63;9.18;;;9.90;99.90;;;;;;5113683;27;20050;-89
2023/04/18 08:15:49;;;;;;;12.27;7.60;;;9.90;99.90;;;;;;5093406;28;20067;-88
2023/04/18 08:18:15;;;;;;;20.50;8.30;;;10.00;99.90;;;;;;5107876;27;20041;-88
2023/04/18 08:20:41;;;;;;;15.00;8.43;;;10.10;99.90;;;;;;5114005;27;20064;-89
2023/04/18 08:23:07;;;;;;;26.70;8.45;;;10.10;99.90;;;;;;5100741;27;20068;-88
2023/04/18 08:25:34;;;;;;;14.88;7.97;;;10.20;99.90;;;;;;5101189;27;20058;-89
2023/04/18 08:28:00;;;;;;;15.85;7.05;;;10.20;99.90;;;;;;5112724;27;20420;-88
2023/04/18 08:30:26;;;;;;;15.32;7.95;;;10.30;99.90;;;;;;5094172;28;20111;-87
2023/04/18 08:32:52;;;;;;;18.13;8.10;;;10.40;99.90;;;;;;5106668;27;20046;-89
2023/04/18 08:35:18;;;;;;;19.80;7.75;;;10.40;99.90;;;;;;5101942;27;20502;-88
2023/04/18 08:37:43;;;;;;;21.02;7.18;;;10.50;99.90;;;;;;5113289;27;20182;-87
2023/04/18 08:40:09;;;;;;;24.95;9.57;;;10.50;99.90;;;;;;5101747;27;20129;-88
2023/04/18 08:42:37;;;;;;;15.63;7.57;;;10.60;99.90;;;;;;5117720;27;20549;-89
2023/04/18 08:45:04;;;;;;;20.88;7.80;;;10.70;99.90;;;;;;5104967;27;20235;-88
2023/04/18 08:47:30;;;;;;;20.80;7.90;;;10.70;99.90;;;;;;5102766;27;20881;-88
2023/04/18 08:49:57;;;;;;;15.50;7.80;;;10.80;99.90;;;;;;5098163;27;20047;-88
2023/04/18 08:52:24;;;;;;;12.55;7.55;;;10.80;99.90;;;;;;5110326;27;20048;-88
2023/04/18 08:54:50;;;;;;;23.73;7.82;;;10.80;99.90;;;;;;5098222;27;20050;-88
2023/04/18 08:57:25;;;;;;;21.88;7.82;;;10.80;99.90;;;;;;5112967;27;20035;-89
2023/04/18 08:59:52;;;;;;;19.95;8.25;;;10.90;99.90;;;;;;5107705;27;20111;-89
2023/04/18 09:02:21;;;;;;;27.92;7.53;;;11.00;99.90;;;;;;5111137;27;20151;-89
2023/04/18 09:04:51;;;;;;;23.95;7.90;;;11.00;99.90;;;;;;5098250;27;20125;-87
2023/04/18 09:07:25;;;;;;;16.15;8.25;;;11.10;99.90;;;;;;5110345;27;20127;-88
2023/04/18 09:09:53;;;;;;;14.98;7.70;;;11.10;99.90;;;;;;5106108;27;20039;-88
2023/04/18 09:12:21;;;;;;;23.85;7.82;;;11.10;99.90;;;;;;5111130;27;20043;-90
2023/04/18 09:14:50;;;;;;;13.48;7.30;;;11.10;99.90;;;;;;5097244;27;20043;-89
2023/04/18 09:17:34;;;;;;;12.73;7.10;;;11.10;99.90;;;;;;5117834;27;20404;-88
2023/04/18 09:20:01;;;;;;;15.88;7.63;;;11.20;99.90;;;;;;5115644;27;20282;-90
2023/04/18 09:22:44;;;;;;;18.63;7.65;;;11.30;99.90;;;;;;5096863;27;20027;-89
2023/04/18 09:25:23;;;;;;;19.52;7.85;;;11.40;99.90;;;;;;5097377;27;20045;-90
2023/04/18 09:27:49;;;;;;;16.38;7.75;;;11.50;99.90;;;;;;5110436;27;20046;-89
2023/04/18 09:30:28;;;;;;;19.02;7.80;;;11.60;99.90;;;;;;5115932;27;20111;-88
2023/04/18 09:32:59;;;;;;;13.75;7.05;;;11.70;99.90;;;;;;5098615;27;20047;-88
2023/04/18 09:35:25;;;;;;;17.08;6.82;;;11.90;99.90;;;;;;5105830;27;20151;-90
2023/04/18 09:37:51;;;;;;;15.32;7.22;;;11.80;99.90;;;;;;5116719;27;20634;-89
2023/04/18 09:40:18;;;;;;;13.20;6.72;;;11.80;99.90;;;;;;5107879;27;20054;-89
2023/04/18 09:42:45;;;;;;;12.70;7.15;;;12.00;99.90;;;;;;5099311;27;20054;-89
2023/04/18 09:45:12;;;;;;;17.25;6.75;;;12.00;99.90;;;;;;5107512;27;20080;-88
2023/04/18 09:47:38;;;;;;;11.27;6.28;;;12.00;99.90;;;;;;5096914;27;20107;-89
2023/04/18 09:50:07;;;;;;;22.60;6.60;;;12.00;99.90;;;;;;5106857;27;20038;-89
2023/04/18 09:52:36;;;;;;;24.33;6.82;;;12.00;99.90;;;;;;5102389;27;20486;-88
2023/04/18 09:55:04;;;;;;;11.88;7.13;;;12.10;99.90;;;;;;5117760;27;20152;-89
2023/04/18 09:57:32;;;;;;;13.45;6.50;;;12.10;99.90;;;;;;5111693;27;20050;-90
2023/04/18 10:00:09;;;;;;;10.77;5.60;;;12.20;99.90;;;;;;5097599;27;20043;-90
2023/04/18 10:02:47;;;;;;;12.90;6.13;;;12.20;99.90;;;;;;5102227;27;20109;-90
2023/04/18 10:05:13;;;;;;;23.08;5.90;;;12.30;99.90;;;;;;5103146;27;20047;-90
2023/04/18 10:07:42;;;;;;;15.20;6.10;;;12.30;99.90;;;;;;5096589;27;20035;-90
2023/04/18 10:10:08;;;;;;;13.93;6.00;;;12.40;99.90;;;;;;5108309;27;20126;-90
2023/04/18 10:12:36;;;;;;;10.20;5.18;;;12.40;99.90;;;;;;5104588;27;20180;-90
2023/04/18 10:15:03;;;;;;;19.38;6.07;;;12.40;99.90;;;;;;5101854;27;20039;-90
2023/04/18 10:17:41;;;;;;;9.95;5.38;;;12.60;99.90;;;;;;5105243;27;20035;-89
2023/04/18 10:20:09;;;;;;;9.27;5.30;;;12.60;99.90;;;;;;5113400;27;20394;-89
2023/04/18 10:22:35;;;;;;;17.52;6.10;;;12.60;99.90;;;;;;5106663;27;20422;-90
2023/04/18 10:25:01;;;;;;;12.98;5.60;;;12.70;99.90;;;;;;5116778;27;20036;-92
2023/04/18 10:27:47;;;;;;;32.17;5.85;;;12.80;99.90;;;;;;5127849;27;20057;-90
2023/04/18 10:30:14;;;;;;;11.05;5.53;;;13.00;99.90;;;;;;5108963;27;20042;-89
2023/04/18 10:32:43;;;;;;;19.65;5.82;;;12.90;99.90;;;;;;5119441;27;20115;-90
2023/04/18 10:39:45;;;;;;;13.50;5.15;;;12.70;99.90;;;;;;5131287;27;20106;-92
2023/04/18 10:42:44;;;;;;;8.80;5.00;;;12.70;99.90;;;;;;5109892;27;20074;-92
2023/04/18 10:45:18;;;;;;;9.48;4.85;;;12.60;99.90;;;;;;5113520;27;20058;-91
2023/04/18 10:47:44;;;;;;;15.15;5.20;;;12.90;99.90;;;;;;5102531;27;20149;-89
2023/04/18 10:50:10;;;;;;;10.48;5.13;;;13.00;99.90;;;;;;5118701;27;20034;-92
2023/04/18 10:53:14;;;;;;;10.80;5.20;;;13.00;99.90;;;;;;5118535;27;20035;-93
2023/04/18 10:56:05;;;;;;;13.25;5.10;;;12.70;99.90;;;;;;5115239;27;20051;-93
2023/04/18 10:59:04;;;;;;;9.50;4.65;;;13.10;99.90;;;;;;5072103;27;20055;-92
2023/04/18 11:01:36;;;;;;;21.30;5.60;;;13.20;99.90;;;;;;5032685;27;20046;-91
2023/04/18 11:04:11;;;;;;;7.32;5.45;;;13.20;99.90;;;;;;5118096;27;20042;-91
2023/04/18 11:06:51;;;;;;;8.80;5.28;;;13.20;99.90;;;;;;5116356;27;20039;-90
2023/04/18 11:09:22;;;;;;;8.38;5.63;;;13.30;99.90;;;;;;5111844;27;20075;-90
2023/04/18 11:12:09;;;;;;;9.40;5.80;;;13.40;99.90;;;;;;5117826;27;20073;-90
2023/04/18 11:14:43;;;;;;;9.43;5.97;;;13.50;99.90;;;;;;5108136;27;20102;-92
2023/04/18 11:17:18;;;;;;;13.75;5.75;;;13.40;99.90;;;;;;5109100;27;20035;-90
2023/04/18 11:19:45;;;;;;;9.90;6.07;;;13.30;99.90;;;;;;5109911;27;20058;-91
2023/04/18 11:22:11;;;;;;;11.75;5.93;;;13.40;99.90;;;;;;5115395;27;20083;-91
2023/04/18 11:24:37;;;;;;;9.05;5.43;;;13.40;99.90;;;;;;5116624;27;20075;-91
2023/04/18 11:27:08;;;;;;;10.02;5.07;;;13.50;99.90;;;;;;5111018;27;20067;-91
2023/04/18 11:29:34;;;;;;;6.30;4.50;;;13.40;99.90;;;;;;5111490;27;20139;-90
2023/04/18 11:32:04;;;;;;;9.88;5.03;;;13.50;99.90;;;;;;5113146;27;20050;-90
2023/04/18 11:34:30;;;;;;;7.63;4.30;;;13.60;99.90;;;;;;5109510;27;20046;-92
2023/04/18 11:36:56;;;;;;;7.93;4.00;;;13.70;99.90;;;;;;5112843;27;20045;-92
2023/04/18 11:39:25;;;;;;;7.85;4.03;;;13.80;99.90;;;;;;5112344;27;20047;-92
2023/04/18 11:41:51;;;;;;;12.13;4.75;;;13.90;99.90;;;;;;5112231;27;20039;-92
2023/04/18 11:44:50;;;;;;;9.57;4.78;;;14.00;99.90;;;;;;5115931;27;20038;-93
2023/04/18 11:47:22;;;;;;;10.25;4.15;;;14.00;99.90;;;;;;5128261;27;20080;-93
2023/04/18 11:49:55;;;;;;;11.00;4.30;;;14.00;99.90;;;;;;5117726;27;20074;-92
2023/04/18 11:52:23;;;;;;;7.13;4.07;;;14.10;99.90;;;;;;5117005;27;20042;-93
2023/04/18 11:54:52;;;;;;;8.20;3.45;;;14.10;99.90;;;;;;5118810;27;21148;-92
2023/04/18 11:57:34;;;;;;;7.63;3.47;;;14.20;99.90;;;;;;5117778;27;20046;-92
2023/04/18 12:00:11;;;;;;;11.00;3.67;;;14.20;99.90;;;;;;5117866;27;20490;-92
2023/04/18 12:02:41;;;;;;;12.65;3.67;;;14.10;99.90;;;;;;5099516;27;20079;-91
2023/04/18 12:05:07;;;;;;;7.03;2.60;;;13.80;99.90;;;;;;5108281;27;20379;-91
2023/04/18 12:07:35;;;;;;;6.22;3.10;;;13.60;99.90;;;;;;5110238;28;20045;-92
2023/04/18 12:10:03;;;;;;;6.68;2.80;;;13.50;99.90;;;;;;5114217;27;20042;-91
2023/04/18 12:12:29;;;;;;;5.22;2.70;;;13.60;99.90;;;;;;5103464;27;20038;-92
2023/04/18 12:15:42;;;;;;;12.25;3.17;;;13.80;99.90;;;;;;5114427;27;20107;-92
2023/04/18 12:19:14;;;;;;;5.75;2.55;;;14.00;99.90;;;;;;5040330;27;20065;-94
2023/04/18 12:21:33;;;;;;;8.30;2.90;;;13.80;99.90;;;;;;5133318;27;20949;-88
2023/04/18 12:23:59;;;;;;;10.23;2.80;;;13.90;99.90;;;;;;5121071;27;20129;-89
2023/04/18 12:26:26;;;;;;;4.95;2.67;;;14.00;99.90;;;;;;5120426;27;20516;-89
2023/04/18 12:28:52;;;;;;;9.80;3.45;;;13.90;99.90;;;;;;5120662;27;20161;-90
2023/04/18 12:31:21;;;;;;;6.43;3.00;;;13.90;99.90;;;;;;5120188;27;20145;-92
2023/04/18 12:33:50;;;;;;;7.05;3.28;;;13.80;99.90;;;;;;5120077;27;20043;-89
2023/04/18 12:36:16;;;;;;;4.70;2.75;;;14.00;99.90;;;;;;5120117;27;20545;-89
2023/04/18 12:41:45;;;;;;;7.97;3.08;;;14.20;99.90;;;;;;5081619;27;20051;-90
2023/04/18 12:44:11;;;;;;;7.13;3.47;;;14.00;99.90;;;;;;5114137;27;20039;-89
2023/04/18 12:46:37;;;;;;;9.07;3.20;;;13.90;99.90;;;;;;5119420;27;20576;-87
2023/04/18 12:49:05;;;;;;;7.00;3.35;;;13.90;99.90;;;;;;5119293;27;20050;-94
2023/04/18 12:51:40;;;;;;;6.72;3.13;;;14.10;99.90;;;;;;5120415;27;20142;-92
2023/04/18 12:54:06;;;;;;;7.30;2.97;;;14.10;99.90;;;;;;5120501;27;20099;-89